Time;durP1;ratioP1;P1;durP2;ratioP2;P2;SDS_P1;SDS_P2;PMS_P1;PMS_P2;Temp;Humidity;BMP_temperature;BMP_pressure;BME280_temperature;BME280_humidity;BME280_pressure;Samples;Min_cycle;Max_cycle;Signal;HPM_P1;HPM_P2
2022/12/30 00:01:17;;;;;;;14.52;3.13;;;;;;;7.17;87.71;100186.63;6218129;22;20394;-77
2022/12/30 00:03:45;;;;;;;8.35;2.65;;;;;;;7.20;87.25;100185.75;6242629;22;20086;-74
2022/12/30 00:06:19;;;;;;;11.15;3.75;;;;;;;7.13;87.40;100182.28;6242701;22;20410;-75
2022/12/30 00:08:49;;;;;;;11.52;3.00;;;;;;;7.07;88.33;100187.53;6243870;22;20016;-75
2022/12/30 00:11:22;;;;;;;11.10;2.65;;;;;;;7.01;88.71;100187.53;6242958;22;20007;-75
2022/12/30 00:33:57;;;;;;;6.07;2.00;;;;;;;7.11;87.34;100221.34;6158140;23;20024;-75
2022/12/30 00:36:26;;;;;;;7.50;2.65;;;;;;;7.10;87.51;100224.84;6151412;23;20744;-75
2022/12/30 00:38:54;;;;;;;15.18;2.45;;;;;;;7.11;86.77;100225.69;6206021;22;20450;-74
2022/12/30 00:44:05;;;;;;;9.05;3.92;;;;;;;7.10;85.77;100236.97;6247092;22;20061;-76
2022/12/30 00:46:32;;;;;;;7.70;2.28;;;;;;;7.04;85.92;100245.66;6243752;22;20020;-75
2022/12/30 00:57:10;;;;;;;6.95;1.80;;;;;;;7.25;83.32;100272.53;6246913;22;20011;-75
2022/12/30 00:59:37;;;;;;;6.35;2.42;;;;;;;7.28;83.26;100269.91;6243416;22;20857;-75
2022/12/30 01:02:03;;;;;;;9.82;3.03;;;;;;;7.27;82.96;100279.47;6241311;22;20023;-75
2022/12/30 01:04:30;;;;;;;5.03;3.03;;;;;;;7.28;82.96;100272.50;6272289;22;20323;-75
2022/12/30 01:06:56;;;;;;;10.85;2.63;;;;;;;7.31;82.08;100282.91;6245338;22;20011;-75
2022/12/30 01:09:23;;;;;;;11.55;3.30;;;;;;;7.33;81.83;100283.78;6244406;22;20018;-75
2022/12/30 01:12:07;;;;;;;11.55;2.17;;;;;;;7.33;82.05;100275.97;6243722;22;20439;-74
2022/12/30 01:14:41;;;;;;;;;;;;;;;7.33;81.92;100291.59;6245337;22;20115;-74
2022/12/30 01:17:10;;;;;;;13.73;2.55;;;;;;;7.27;82.52;100294.22;6244407;22;19923;-75
2022/12/30 01:19:37;;;;;;;11.93;2.13;;;;;;;7.20;82.95;100293.34;6245282;22;20007;-75
2022/12/30 01:22:06;;;;;;;8.13;2.90;;;;;;;7.24;82.45;100297.69;6242984;22;20014;-75
2022/12/30 01:24:32;;;;;;;6.43;1.80;;;;;;;7.23;81.96;100293.34;6244824;22;20426;-75
2022/12/30 01:26:59;;;;;;;9.07;2.20;;;;;;;7.16;82.05;100302.03;6219785;22;20008;-76
2022/12/30 01:29:34;;;;;;;5.38;1.60;;;;;;;7.15;81.76;100309.84;6245072;22;20012;-75
2022/12/30 01:32:01;;;;;;;10.55;2.13;;;;;;;7.20;80.78;100305.50;6243147;22;20012;-76
2022/12/30 01:34:28;;;;;;;10.65;2.28;;;;;;;7.16;81.10;100317.66;6243098;22;20827;-75
2022/12/30 01:36:54;;;;;;;7.10;2.25;;;;;;;7.15;80.86;100312.44;6271928;22;20042;-75
2022/12/30 01:39:21;;;;;;;6.38;2.47;;;;;;;7.11;80.88;100315.03;6244262;22;20370;-75
2022/12/30 01:41:48;;;;;;;5.80;2.85;;;;;;;6.99;81.49;100327.19;6242453;22;20011;-75
2022/12/30 01:44:50;;;;;;;8.32;2.88;;;;;;;6.94;82.35;100327.19;6243641;22;20366;-75
2022/12/30 01:47:23;;;;;;;6.30;1.67;;;;;;;6.80;83.56;100329.78;6260804;22;20331;-74
2022/12/30 01:49:55;;;;;;;12.52;3.92;;;;;;;6.83;83.43;100345.41;6245238;22;20069;-75
2022/12/30 01:52:25;;;;;;;10.18;2.33;;;;;;;6.83;83.85;100341.91;6242763;22;20026;-75
2022/12/30 01:55:00;;;;;;;9.80;2.05;;;;;;;6.87;83.50;100341.03;6244760;22;20019;-74
2022/12/30 01:57:26;;;;;;;10.27;2.58;;;;;;;6.94;83.16;100351.47;6244287;22;20335;-75
2022/12/30 01:59:53;;;;;;;5.25;1.80;;;;;;;7.07;82.79;100330.66;6244305;22;20059;-75
2022/12/30 02:02:29;;;;;;;8.80;2.40;;;;;;;7.04;83.15;100341.06;6241598;22;20016;-74
2022/12/30 02:04:56;;;;;;;12.00;2.17;;;;;;;7.03;83.71;100339.34;6271276;22;20023;-74
2022/12/30 02:07:44;;;;;;;6.10;2.13;;;;;;;6.98;83.97;100349.75;6244071;22;20016;-74
2022/12/30 02:10:11;;;;;;;8.40;1.90;;;;;;;7.00;84.42;100354.94;6243701;22;20609;-75
2022/12/30 02:12:37;;;;;;;9.25;2.83;;;;;;;6.99;84.21;100356.69;6242031;22;20007;-75
2022/12/30 02:15:05;;;;;;;10.32;3.58;;;;;;;7.02;84.44;100345.41;6242111;22;20425;-75
2022/12/30 02:18:00;;;;;;;10.60;2.20;;;;;;;7.03;84.89;100353.22;6241991;22;20016;-75
2022/12/30 02:21:05;;;;;;;6.80;2.72;;;;;;;6.99;85.06;100353.19;6240829;22;20066;-74
2022/12/30 02:23:55;;;;;;;13.07;2.55;;;;;;;6.97;85.23;100349.75;6242769;22;20054;-74
2022/12/30 02:27:04;;;;;;;6.30;2.22;;;;;;;6.97;84.98;100357.56;6270884;22;20077;-74
2022/12/30 02:29:54;;;;;;;7.03;2.20;;;;;;;6.90;85.04;100349.72;6245012;22;20111;-75
2022/12/30 02:32:31;;;;;;;5.65;2.20;;;;;;;6.85;86.16;100354.06;6217213;22;20016;-75
2022/12/30 02:35:22;;;;;;;8.30;2.67;;;;;;;6.87;85.84;100354.06;6270144;22;20118;-76
2022/12/30 02:38:10;;;;;;;6.82;2.78;;;;;;;6.82;86.04;100355.78;6243820;22;20023;-75
2022/12/30 02:46:35;;;;;;;9.50;2.00;;;;;;;6.76;85.85;100360.09;6248180;22;20019;-74
2022/12/30 02:49:04;;;;;;;6.68;2.35;;;;;;;6.85;85.17;100366.22;6244701;22;20012;-74
2022/12/30 02:54:15;;;;;;;8.40;2.00;;;;;;;6.88;85.41;100368.81;6247847;22;20014;-74
2022/12/30 02:56:50;;;;;;;9.27;2.90;;;;;;;6.77;85.81;100374.84;6218378;22;20019;-74
2022/12/30 03:06:00;;;;;;;10.45;2.15;;;;;;;6.84;85.57;100391.34;6247292;22;20315;-74
2022/12/30 03:08:49;;;;;;;8.45;1.90;;;;;;;6.90;85.57;100386.16;6270953;22;20073;-74
2022/12/30 03:11:16;;;;;;;12.68;3.30;;;;;;;6.89;85.66;100376.63;6217859;22;20037;-75
2022/12/30 03:14:23;;;;;;;8.63;2.58;;;;;;;6.81;85.88;100380.09;6243842;22;20042;-74
2022/12/30 03:16:56;;;;;;;8.30;1.88;;;;;;;6.75;86.07;100389.63;6219015;22;20019;-74
2022/12/30 03:19:27;;;;;;;9.85;3.53;;;;;;;6.55;86.60;100378.28;6244219;22;20016;-74
2022/12/30 03:21:55;;;;;;;9.50;3.08;;;;;;;6.48;87.38;100387.81;6243225;22;20007;-75
2022/12/30 03:27:17;;;;;;;9.05;2.90;;;;;;;6.57;86.17;100384.34;6248228;22;20008;-75
2022/12/30 03:29:54;;;;;;;8.82;2.22;;;;;;;6.56;86.54;100391.28;6244230;22;20069;-75
2022/12/30 03:32:22;;;;;;;9.15;2.17;;;;;;;6.50;87.18;100391.25;6217273;22;20016;-75
2022/12/30 03:34:49;;;;;;;11.38;3.20;;;;;;;6.50;86.84;100385.19;6218552;22;20012;-74
2022/12/30 03:37:37;;;;;;;10.45;2.90;;;;;;;6.40;87.48;100376.47;6244195;22;20016;-75
2022/12/30 03:40:17;;;;;;;11.82;3.92;;;;;;;6.29;88.43;100382.50;6241221;22;20042;-74
2022/12/30 03:42:47;;;;;;;13.70;2.72;;;;;;;6.21;88.42;100372.97;6217862;22;20061;-74
2022/12/30 03:45:15;;;;;;;11.65;4.07;;;;;;;6.28;88.29;100386.00;6218573;22;20621;-75
2022/12/30 03:47:41;;;;;;;11.80;3.00;;;;;;;6.22;88.95;100385.06;6244332;22;20427;-76
2022/12/30 03:50:08;;;;;;;8.55;2.17;;;;;;;6.15;90.04;100386.78;6244444;22;20385;-75
2022/12/30 03:52:35;;;;;;;8.75;3.97;;;;;;;6.09;90.21;100385.03;6243769;22;20019;-75
2022/12/30 03:55:01;;;;;;;5.40;2.40;;;;;;;6.07;90.96;100384.13;6243838;22;20015;-74
2022/12/30 03:57:28;;;;;;;10.13;2.53;;;;;;;6.06;91.14;100398.00;6244872;22;20042;-75
2022/12/30 03:59:54;;;;;;;4.65;2.53;;;;;;;6.05;91.50;100391.06;6244244;22;20019;-75
2022/12/30 04:02:21;;;;;;;9.07;2.22;;;;;;;6.07;91.67;100391.94;6216442;22;20020;-74
2022/12/30 04:04:47;;;;;;;8.45;2.92;;;;;;;6.19;91.16;100387.66;6270799;22;20018;-75
2022/12/30 04:07:14;;;;;;;7.85;2.45;;;;;;;6.28;91.15;100392.91;6243941;22;20015;-75
2022/12/30 04:09:40;;;;;;;7.25;2.47;;;;;;;6.29;91.20;100398.09;6243983;22;20789;-75
2022/12/30 04:12:07;;;;;;;10.48;2.60;;;;;;;6.34;90.67;100397.28;6243019;22;20022;-74
2022/12/30 04:14:34;;;;;;;11.00;2.05;;;;;;;6.36;90.95;100382.53;6243233;22;20069;-76
2022/12/30 04:17:01;;;;;;;7.05;2.50;;;;;;;6.41;90.41;100397.31;6244060;22;20027;-74
2022/12/30 04:19:27;;;;;;;10.80;2.28;;;;;;;6.45;90.68;100411.16;6219752;22;20023;-74
2022/12/30 04:21:54;;;;;;;11.45;2.92;;;;;;;6.45;90.17;100413.78;6217987;22;20007;-76
2022/12/30 04:24:20;;;;;;;5.32;2.85;;;;;;;6.41;90.63;100404.22;6244339;22;20595;-75
2022/12/30 04:26:47;;;;;;;14.45;2.63;;;;;;;6.40;91.17;100413.78;6244408;22;20011;-75
2022/12/30 04:29:13;;;;;;;6.82;2.70;;;;;;;6.26;91.46;100410.25;6243718;22;20020;-74
2022/12/30 04:31:40;;;;;;;12.98;2.83;;;;;;;6.20;92.04;100412.81;6217335;22;20011;-75
2022/12/30 04:34:07;;;;;;;13.38;3.38;;;;;;;6.15;92.52;100412.75;6244092;22;20008;-74
2022/12/30 04:36:33;;;;;;;7.93;2.20;;;;;;;6.10;92.97;100427.47;6244186;22;20070;-75
2022/12/30 04:38:59;;;;;;;12.45;3.47;;;;;;;6.14;92.86;100426.66;6244680;22;20020;-74
2022/12/30 04:41:26;;;;;;;4.75;2.90;;;;;;;6.03;93.30;100425.72;6242299;22;20107;-74
2022/12/30 04:43:52;;;;;;;11.45;2.90;;;;;;;5.89;94.06;100436.84;6272456;22;20019;-74
2022/12/30 04:46:19;;;;;;;9.30;2.58;;;;;;;5.95;94.25;100433.41;6244887;22;20012;-74
2022/12/30 04:48:45;;;;;;;14.50;4.78;;;;;;;6.06;93.52;100439.59;6246055;22;20019;-76
2022/12/30 04:51:12;;;;;;;8.18;2.92;;;;;;;6.06;93.28;100442.19;6244968;22;20081;-75
2022/12/30 04:53:38;;;;;;;11.10;2.75;;;;;;;6.03;93.56;100446.50;6272474;22;20371;-75
2022/12/30 04:56:05;;;;;;;9.40;3.15;;;;;;;5.97;93.98;100452.47;6271847;22;20138;-74
2022/12/30 04:58:31;;;;;;;12.43;3.55;;;;;;;6.02;93.48;100440.41;6244647;22;20019;-75
2022/12/30 05:00:58;;;;;;;10.38;3.22;;;;;;;5.92;94.01;100443.81;6243103;22;20007;-75
2022/12/30 05:03:24;;;;;;;10.80;3.13;;;;;;;5.87;94.40;100448.09;6243305;22;20020;-74
2022/12/30 05:05:51;;;;;;;8.82;4.25;;;;;;;5.73;94.92;100458.38;6220341;22;20057;-74
2022/12/30 05:08:17;;;;;;;10.38;4.18;;;;;;;5.71;95.45;100454.88;6245410;22;20089;-75
2022/12/30 05:10:45;;;;;;;11.73;3.90;;;;;;;5.70;95.31;100461.81;6246068;22;20019;-74
2022/12/30 05:13:11;;;;;;;10.23;3.70;;;;;;;5.60;96.34;100466.06;6243884;22;20012;-76
2022/12/30 05:15:38;;;;;;;11.70;3.40;;;;;;;5.56;96.90;100463.44;6272488;22;20012;-75
2022/12/30 05:18:04;;;;;;;12.90;3.47;;;;;;;5.66;96.20;100467.84;6270537;22;20012;-75
2022/12/30 05:20:33;;;;;;;11.80;3.00;;;;;;;5.56;96.90;100460.84;6219760;22;20262;-76
2022/12/30 05:23:00;;;;;;;11.00;3.40;;;;;;;5.60;96.78;100460.84;6216770;22;20012;-75
2022/12/30 05:28:10;;;;;;;9.00;3.35;;;;;;;5.35;98.24;100467.56;6249420;22;20015;-74
2022/12/30 05:30:37;;;;;;;5.63;3.22;;;;;;;5.48;98.29;100460.75;6245746;22;20015;-74
2022/12/30 05:33:05;;;;;;;11.32;3.35;;;;;;;5.30;98.49;100462.31;6244355;22;20022;-74
2022/12/30 05:35:32;;;;;;;10.40;3.20;;;;;;;5.24;99.30;100467.47;6245584;22;20057;-74
2022/12/30 05:37:58;;;;;;;11.85;3.38;;;;;;;5.12;100.00;100478.59;6271758;22;20449;-74
2022/12/30 05:40:25;;;;;;;11.88;2.88;;;;;;;5.05;100.00;100475.94;6244574;22;20014;-74
2022/12/30 05:42:51;;;;;;;7.00;2.90;;;;;;;4.90;100.00;100479.19;6270169;22;20011;-74
2022/12/30 05:45:18;;;;;;;9.52;3.92;;;;;;;4.85;100.00;100481.75;6270752;22;20022;-75
2022/12/30 05:47:44;;;;;;;10.88;4.22;;;;;;;4.75;100.00;100479.91;6245190;22;20008;-75
2022/12/30 05:50:11;;;;;;;7.03;3.22;;;;;;;4.63;100.00;100476.31;6244735;22;20019;-74
2022/12/30 05:52:37;;;;;;;11.73;4.72;;;;;;;4.59;100.00;100482.31;6244121;22;20776;-76
2022/12/30 05:55:04;;;;;;;7.55;2.85;;;;;;;4.54;100.00;100478.78;6244210;22;20023;-75
2022/12/30 05:57:31;;;;;;;35.72;4.93;;;;;;;4.51;100.00;100483.06;6243039;22;20030;-74
2022/12/30 05:59:57;;;;;;;12.90;4.32;;;;;;;4.48;100.00;100489.06;6244812;22;20008;-75
2022/12/30 06:02:23;;;;;;;3.10;2.38;;;;;;;4.50;100.00;100483.91;6243561;22;20027;-76
2022/12/30 06:04:50;;;;;;;6.35;2.10;;;;;;;4.46;100.00;100493.38;6244995;22;20012;-75
2022/12/30 06:07:16;;;;;;;7.13;3.05;;;;;;;4.50;100.00;100497.75;6244872;22;20015;-75
2022/12/30 06:09:43;;;;;;;17.77;4.00;;;;;;;4.58;100.00;100493.53;6243404;22;20008;-76
2022/12/30 06:12:09;;;;;;;15.55;3.58;;;;;;;4.60;100.00;100503.91;6245468;22;20134;-75
2022/12/30 06:14:36;;;;;;;13.88;4.28;;;;;;;4.58;100.00;100500.44;6246168;22;20015;-74
2022/12/30 06:17:02;;;;;;;16.13;3.83;;;;;;;4.59;100.00;100500.47;6244149;22;20074;-74
2022/12/30 06:19:28;;;;;;;14.07;4.28;;;;;;;4.63;100.00;100506.56;6245393;22;20008;-74
2022/12/30 06:21:55;;;;;;;9.27;2.80;;;;;;;4.82;100.00;100514.56;6270633;22;20019;-75
2022/12/30 06:24:21;;;;;;;4.93;2.63;;;;;;;4.84;100.00;100513.72;6270938;22;20741;-76
2022/12/30 06:26:48;;;;;;;9.45;2.58;;;;;;;4.78;100.00;100513.66;6244567;22;20019;-76
2022/12/30 06:29:14;;;;;;;12.07;3.13;;;;;;;4.69;100.00;100511.81;6244855;22;20019;-75
2022/12/30 06:31:41;;;;;;;9.52;2.30;;;;;;;4.61;100.00;100513.44;6243751;22;20330;-75
2022/12/30 06:34:07;;;;;;;7.53;2.50;;;;;;;4.57;100.00;100507.31;6244137;22;20152;-75
2022/12/30 06:36:34;;;;;;;11.98;2.53;;;;;;;4.58;100.00;100511.66;6271163;22;20085;-74
2022/12/30 06:39:00;;;;;;;9.95;2.28;;;;;;;4.55;100.00;100509.03;6243612;22;20018;-75
2022/12/30 06:41:26;;;;;;;8.80;2.90;;;;;;;4.51;100.00;100504.69;6217077;22;20045;-76
2022/12/30 06:43:53;;;;;;;6.35;2.22;;;;;;;4.57;100.00;100499.56;6243487;22;20087;-74
2022/12/30 06:46:19;;;;;;;6.68;2.17;;;;;;;4.63;100.00;100496.19;6243603;22;20161;-76
2022/12/30 06:48:46;;;;;;;15.70;5.25;;;;;;;4.59;100.00;100502.19;6218316;22;20083;-75
2022/12/30 06:51:12;;;;;;;10.07;2.20;;;;;;;4.55;100.00;100503.88;6269589;22;20074;-74
2022/12/30 06:53:39;;;;;;;11.25;3.97;;;;;;;4.56;100.00;100504.72;6243267;22;20016;-75
2022/12/30 06:56:06;;;;;;;9.52;3.42;;;;;;;4.58;100.00;100495.25;6244323;22;20012;-74
2022/12/30 06:58:33;;;;;;;8.38;2.00;;;;;;;4.59;100.00;100492.69;6244643;22;20016;-75
2022/12/30 07:00:59;;;;;;;6.93;2.50;;;;;;;4.59;100.00;100500.47;6243131;22;20073;-74
2022/12/30 07:03:26;;;;;;;4.80;2.08;;;;;;;4.62;100.00;100507.41;6270184;22;20015;-74
2022/12/30 07:05:52;;;;;;;11.63;1.67;;;;;;;4.56;100.00;100509.91;6244727;22;20015;-74
2022/12/30 07:08:19;;;;;;;12.65;2.55;;;;;;;4.56;100.00;100509.91;6244401;22;20494;-75
2022/12/30 07:10:46;;;;;;;10.38;1.85;;;;;;;4.53;100.00;100512.47;6243701;22;20016;-76
2022/12/30 07:13:13;;;;;;;10.57;1.70;;;;;;;4.47;100.00;100500.28;6242171;22;20012;-74
2022/12/30 07:15:40;;;;;;;7.45;1.83;;;;;;;4.38;100.00;100500.16;6243642;22;20303;-75
2022/12/30 07:18:07;;;;;;;12.57;1.92;;;;;;;4.34;100.00;100504.44;6243909;22;20016;-74
2022/12/30 07:20:34;;;;;;;7.13;2.08;;;;;;;4.32;100.00;100508.72;6271725;22;20417;-75
2022/12/30 07:23:00;;;;;;;10.27;1.52;;;;;;;4.33;100.00;100507.88;6242504;22;20012;-75
2022/12/30 07:25:27;;;;;;;6.60;1.80;;;;;;;4.37;100.00;100514.84;6218205;22;20018;-75
2022/12/30 07:28:04;;;;;;;8.23;1.45;;;;;;;4.43;100.00;100514.94;6218608;22;20341;-75
2022/12/30 07:30:32;;;;;;;15.75;2.53;;;;;;;4.43;100.00;100516.63;6244375;22;20113;-75
2022/12/30 07:32:59;;;;;;;6.35;2.22;;;;;;;4.38;100.00;100506.22;6242931;22;20011;-75
2022/12/30 07:35:25;;;;;;;9.55;1.65;;;;;;;4.37;100.00;100516.53;6218778;22;20015;-74
2022/12/30 07:37:52;;;;;;;5.93;2.30;;;;;;;4.35;100.00;100523.44;6244175;22;20008;-74
2022/12/30 07:40:19;;;;;;;4.05;1.65;;;;;;;4.41;100.00;100527.00;6244369;22;20011;-74
2022/12/30 07:42:45;;;;;;;10.57;2.08;;;;;;;4.41;100.00;100532.19;6242687;22;20019;-74
2022/12/30 07:45:12;;;;;;;6.90;1.65;;;;;;;4.44;100.00;100531.34;6218005;22;20102;-74
2022/12/30 07:47:38;;;;;;;9.30;2.50;;;;;;;4.43;100.00;100532.19;6243045;22;20102;-76
2022/12/30 07:50:06;;;;;;;3.08;1.10;;;;;;;4.46;100.00;100535.72;6218032;22;20457;-75
2022/12/30 07:52:33;;;;;;;4.78;1.52;;;;;;;4.48;100.00;100533.13;6242700;22;20634;-74
2022/12/30 07:54:59;;;;;;;11.00;1.63;;;;;;;4.52;100.00;100528.88;6244603;22;20073;-75
2022/12/30 07:57:26;;;;;;;5.28;1.20;;;;;;;4.52;100.00;100528.88;6218866;22;20039;-75
2022/12/30 07:59:52;;;;;;;9.38;1.77;;;;;;;4.47;100.00;100518.41;6243227;22;20015;-75
2022/12/30 08:02:18;;;;;;;4.45;1.48;;;;;;;4.42;100.00;100508.00;6241760;22;20016;-75
2022/12/30 08:04:45;;;;;;;6.07;1.50;;;;;;;4.35;100.00;100510.50;6218092;22;20016;-75
2022/12/30 08:07:11;;;;;;;6.43;1.65;;;;;;;4.33;100.00;100507.88;6217770;22;20025;-76
2022/12/30 08:09:38;;;;;;;8.45;1.75;;;;;;;4.30;100.00;100505.22;6217639;22;20020;-74
2022/12/30 08:12:05;;;;;;;4.15;1.60;;;;;;;4.33;100.00;100510.47;6270288;22;20012;-75
2022/12/30 08:14:31;;;;;;;8.00;1.80;;;;;;;4.32;100.00;100506.13;6272803;22;20773;-75
2022/12/30 08:16:58;;;;;;;6.50;1.52;;;;;;;4.33;100.00;100504.41;6244122;22;20012;-75
2022/12/30 08:19:24;;;;;;;5.18;2.17;;;;;;;4.33;100.00;100505.28;6218938;22;20022;-74
2022/12/30 08:21:51;;;;;;;8.23;1.88;;;;;;;4.38;100.00;100495.84;6245346;22;20415;-74
2022/12/30 08:24:17;;;;;;;8.57;1.88;;;;;;;4.42;100.00;100492.47;6220352;22;20094;-74
2022/12/30 08:26:43;;;;;;;6.68;1.70;;;;;;;4.43;100.00;100490.72;6245721;22;20036;-75
2022/12/30 08:29:10;;;;;;;8.13;2.38;;;;;;;4.44;100.00;100497.66;6243839;22;20008;-75
2022/12/30 08:31:36;;;;;;;10.65;1.92;;;;;;;4.50;100.00;100491.66;6218521;22;20031;-75
2022/12/30 08:34:03;;;;;;;6.07;1.40;;;;;;;4.53;100.00;100490.00;6243855;22;20016;-76
2022/12/30 08:36:30;;;;;;;8.85;1.50;;;;;;;4.64;100.00;100501.38;6245201;22;20027;-74
2022/12/30 08:39:01;;;;;;;4.97;1.60;;;;;;;4.71;100.00;100502.31;6245755;22;20111;-74
2022/12/30 08:41:32;;;;;;;4.55;1.15;;;;;;;4.73;100.00;100502.34;6244571;22;20047;-74
2022/12/30 08:43:59;;;;;;;6.70;1.27;;;;;;;4.75;100.00;100516.22;6219955;22;20073;-76
2022/12/30 08:46:28;;;;;;;7.93;1.63;;;;;;;4.82;100.00;100515.41;6245498;22;20016;-75
2022/12/30 08:48:55;;;;;;;8.57;1.65;;;;;;;4.90;100.00;100510.31;6272796;22;20024;-75
2022/12/30 08:51:21;;;;;;;6.47;1.75;;;;;;;4.98;100.00;100503.53;6242069;22;20444;-75
2022/12/30 08:53:48;;;;;;;6.65;2.40;;;;;;;5.06;99.48;100501.00;6273148;22;20061;-75
2022/12/30 08:56:18;;;;;;;7.13;1.90;;;;;;;5.11;98.88;100501.91;6220660;22;20043;-75
2022/12/30 08:58:46;;;;;;;6.80;1.50;;;;;;;5.14;98.66;100502.81;6246149;22;20495;-74
2022/12/30 09:01:16;;;;;;;2.55;0.82;;;;;;;5.21;97.73;100506.34;6271981;22;20019;-75
2022/12/30 09:03:44;;;;;;;2.97;1.02;;;;;;;5.25;97.69;100521.13;6245131;22;20016;-74
2022/12/30 09:06:13;;;;;;;3.55;0.95;;;;;;;5.27;97.41;100518.53;6245544;22;20446;-75
2022/12/30 09:08:41;;;;;;;6.10;1.73;;;;;;;5.30;97.33;100515.97;6245377;22;20069;-75
2022/12/30 09:11:14;;;;;;;3.00;1.25;;;;;;;5.32;97.14;100511.69;6245281;22;20011;-75
2022/12/30 09:13:41;;;;;;;;;;;;;;;5.34;96.75;100511.69;6245884;22;20111;-75
2022/12/30 09:16:12;;;;;;;11.05;1.20;;;;;;;5.44;96.40;100505.72;6245533;22;19915;-75
2022/12/30 09:18:39;;;;;;;8.93;1.10;;;;;;;5.47;96.00;100505.75;6246011;22;20057;-74
2022/12/30 09:21:07;;;;;;;9.07;1.48;;;;;;;5.48;96.40;100504.91;6245279;22;20591;-74
2022/12/30 09:23:34;;;;;;;9.88;1.60;;;;;;;5.53;95.78;100494.53;6244144;22;20045;-74
2022/12/30 09:26:00;;;;;;;8.10;1.17;;;;;;;5.57;95.71;100499.78;6244923;22;20362;-75
2022/12/30 09:28:27;;;;;;;9.30;1.33;;;;;;;5.62;95.30;100495.50;6245545;22;20012;-74
2022/12/30 09:30:53;;;;;;;8.10;1.70;;;;;;;5.66;94.62;100495.53;6245712;22;20012;-75
2022/12/30 09:33:20;;;;;;;10.77;2.50;;;;;;;5.73;94.31;100493.00;6244606;22;20062;-74
2022/12/30 09:35:46;;;;;;;4.35;1.60;;;;;;;5.82;94.08;100493.94;6244098;22;20015;-75
2022/12/30 09:38:13;;;;;;;6.40;1.40;;;;;;;5.88;93.47;100492.25;6245263;22;20012;-75
2022/12/30 09:44:38;;;;;;;4.20;1.45;;;;;;;6.00;92.16;100493.22;6248131;22;20011;-75
2022/12/30 09:47:24;;;;;;;7.75;1.50;;;;;;;6.07;91.31;100488.09;6218019;22;20077;-76
2022/12/30 09:49:57;;;;;;;3.17;1.10;;;;;;;6.10;91.85;100484.63;6244652;22;20023;-75
2022/12/30 09:52:30;;;;;;;7.60;1.38;;;;;;;6.12;90.95;100483.78;6242976;22;20016;-76
2022/12/30 09:55:07;;;;;;;5.43;1.10;;;;;;;6.19;90.09;100473.44;6245272;22;20502;-75
2022/12/30 09:57:36;;;;;;;6.68;1.27;;;;;;;6.22;89.92;100476.94;6244973;22;20016;-75
2022/12/30 10:00:11;;;;;;;7.20;1.52;;;;;;;6.25;89.32;100474.34;6245042;22;20008;-75
2022/12/30 10:02:59;;;;;;;10.93;1.52;;;;;;;6.29;89.20;100475.22;6243907;22;20062;-75
2022/12/30 10:06:12;;;;;;;8.65;2.00;;;;;;;6.33;89.08;100466.59;6245237;22;20015;-74
2022/12/30 10:09:06;;;;;;;6.43;1.52;;;;;;;6.41;88.05;100472.72;6245405;22;20022;-75
2022/12/30 10:12:02;;;;;;;5.40;1.30;;;;;;;6.43;87.34;100467.53;6270560;22;20034;-74
2022/12/30 10:15:01;;;;;;;9.18;1.10;;;;;;;6.46;87.36;100465.78;6245701;22;20023;-74
2022/12/30 10:18:18;;;;;;;4.68;1.65;;;;;;;6.50;87.23;100465.81;6245146;22;20066;-75
2022/12/30 10:21:24;;;;;;;9.80;2.58;;;;;;;6.56;86.99;100458.03;6218828;22;20038;-75
2022/12/30 10:24:16;;;;;;;5.85;1.77;;;;;;;6.63;86.76;100441.59;6244777;22;20062;-76
2022/12/30 10:26:48;;;;;;;4.85;1.13;;;;;;;6.67;86.92;100435.53;6244526;22;20365;-75
2022/12/30 10:29:38;;;;;;;11.50;2.88;;;;;;;6.75;86.54;100426.03;6219530;22;20081;-75
2022/12/30 10:32:23;;;;;;;2.58;0.93;;;;;;;6.81;85.90;100408.72;6202684;22;20015;-75
2022/12/30 10:35:11;;;;;;;7.30;1.55;;;;;;;6.87;85.85;100417.41;6244520;22;20011;-76
2022/12/30 10:37:37;;;;;;;10.43;1.42;;;;;;;6.92;85.18;100400.06;6244424;22;20441;-76
2022/12/30 10:40:40;;;;;;;6.90;1.48;;;;;;;6.97;85.00;100389.63;6244613;22;20007;-75
2022/12/30 10:43:36;;;;;;;5.30;1.30;;;;;;;7.05;85.02;100381.84;6244055;22;20012;-75
2022/12/30 10:46:33;;;;;;;3.25;0.90;;;;;;;7.05;84.07;100356.72;6213771;22;20031;-75
2022/12/30 10:49:18;;;;;;;6.20;1.73;;;;;;;7.09;83.88;100366.25;6244905;22;20035;-75
2022/12/30 10:51:46;;;;;;;18.30;1.90;;;;;;;7.11;83.96;100353.22;6242734;22;20012;-75
2022/12/30 10:54:13;;;;;;;3.60;1.27;;;;;;;7.14;83.73;100353.22;6244381;22;20016;-75
2022/12/30 10:56:40;;;;;;;7.07;1.30;;;;;;;7.16;84.47;100354.09;6243568;22;20041;-75
2022/12/30 10:59:18;;;;;;;5.18;0.80;;;;;;;7.23;84.26;100352.34;6243273;22;20345;-75
2022/12/30 11:01:48;;;;;;;2.63;1.30;;;;;;;7.26;83.83;100345.41;6192311;22;20020;-75
2022/12/30 11:04:42;;;;;;;3.78;0.80;;;;;;;7.31;83.70;100342.78;6244576;22;20012;-75
2022/12/30 11:07:12;;;;;;;6.78;1.58;;;;;;;7.34;83.92;100350.63;6245350;22;20023;-75
2022/12/30 11:09:39;;;;;;;8.23;1.45;;;;;;;7.38;84.08;100339.34;6244723;22;20322;-74
2022/12/30 11:15:16;;;;;;;4.15;1.30;;;;;;;7.45;83.61;100328.03;6248341;22;20062;-75
2022/12/30 11:17:51;;;;;;;5.38;1.08;;;;;;;7.47;83.90;100322.84;6243613;22;20019;-75
2022/12/30 11:20:17;;;;;;;9.43;2.40;;;;;;;7.48;83.82;100316.72;6242386;22;20430;-75
2022/12/30 11:22:54;;;;;;;5.57;1.25;;;;;;;7.48;83.61;100308.06;6267328;22;20011;-75
2022/12/30 11:25:37;;;;;;;4.88;1.58;;;;;;;7.46;84.03;100300.25;6243073;22;20015;-75
2022/12/30 11:28:07;;;;;;;3.22;1.25;;;;;;;7.48;83.79;100293.28;6243395;22;20094;-74
2022/12/30 11:30:44;;;;;;;8.50;2.05;;;;;;;7.48;84.28;100287.22;6243298;22;20007;-75
2022/12/30 11:33:27;;;;;;;6.63;1.33;;;;;;;7.52;83.67;100279.41;6242418;22;20023;-76
2022/12/30 11:36:16;;;;;;;7.43;1.67;;;;;;;7.56;83.31;100264.63;6243262;22;20019;-76
2022/12/30 11:38:46;;;;;;;6.53;0.95;;;;;;;7.55;83.38;100262.91;6243029;22;20484;-76
2022/12/30 11:41:18;;;;;;;4.60;1.45;;;;;;;7.59;82.83;100259.44;6242253;22;20011;-75
2022/12/30 11:43:51;;;;;;;8.38;1.70;;;;;;;7.60;82.75;100238.56;6270012;22;20670;-75
2022/12/30 11:46:23;;;;;;;2.70;1.60;;;;;;;7.61;82.65;100236.81;6270252;22;20104;-77
2022/12/30 11:48:54;;;;;;;2.70;0.98;;;;;;;7.64;82.24;100230.75;6242276;22;20542;-75
2022/12/30 11:51:26;;;;;;;8.93;1.60;;;;;;;7.65;81.75;100211.63;6242322;22;20097;-75
2022/12/30 11:54:14;;;;;;;4.88;1.38;;;;;;;7.68;82.06;100199.47;6218877;22;20553;-75
2022/12/30 11:57:01;;;;;;;3.35;1.17;;;;;;;7.72;81.85;100192.53;6215577;22;20329;-75
2022/12/30 12:00:00;;;;;;;2.78;1.30;;;;;;;7.73;81.28;100189.91;6241253;22;20012;-74
2022/12/30 12:02:36;;;;;;;4.22;1.17;;;;;;;7.71;81.43;100182.97;6233497;22;20091;-75
2022/12/30 12:05:27;;;;;;;5.80;1.58;;;;;;;7.70;81.68;100178.63;6270810;22;20355;-74
2022/12/30 12:08:05;;;;;;;1.60;1.05;;;;;;;7.69;81.50;100159.53;6271181;22;20606;-75
2022/12/30 12:10:36;;;;;;;2.17;1.23;;;;;;;7.69;81.49;100161.25;6218077;22;20015;-74
2022/12/30 12:13:13;;;;;;;4.57;1.00;;;;;;;7.69;81.21;100140.41;6242664;22;20015;-76
2022/12/30 12:15:48;;;;;;;3.33;1.67;;;;;;;7.74;81.14;100129.09;6243315;22;20036;-75
2022/12/30 12:18:38;;;;;;;10.60;2.67;;;;;;;7.80;80.68;100120.38;6244262;22;20012;-75
2022/12/30 12:21:24;;;;;;;4.88;1.48;;;;;;;7.87;80.80;100118.59;6221863;22;20715;-77
2022/12/30 12:24:06;;;;;;;6.07;1.23;;;;;;;7.88;80.80;100115.97;6219903;22;20012;-76
2022/12/30 12:26:41;;;;;;;1.95;1.00;;;;;;;7.91;81.06;100096.84;6245026;22;20483;-76
2022/12/30 12:29:13;;;;;;;4.78;1.42;;;;;;;7.90;80.89;100090.78;6244431;22;20043;-76
2022/12/30 12:32:07;;;;;;;1.05;0.88;;;;;;;7.89;81.21;100091.66;6245698;22;20426;-75
2022/12/30 12:35:09;;;;;;;3.83;1.33;;;;;;;7.88;81.43;100086.44;6246679;22;20012;-75
2022/12/30 12:37:54;;;;;;;3.35;1.23;;;;;;;7.86;81.66;100082.97;6246807;22;20115;-76
2022/12/30 12:40:49;;;;;;;4.43;1.13;;;;;;;7.83;81.66;100088.22;6245859;22;20509;-75
2022/12/30 12:43:26;;;;;;;9.68;1.52;;;;;;;7.81;82.29;100089.97;6246299;22;20024;-75
2022/12/30 12:46:34;;;;;;;2.47;1.45;;;;;;;7.78;82.17;100081.31;6222041;22;20040;-76
2022/12/30 12:49:31;;;;;;;3.55;1.38;;;;;;;7.79;82.56;100089.97;6243469;22;20070;-76
2022/12/30 12:52:11;;;;;;;1.88;1.08;;;;;;;7.78;82.52;100081.31;6268850;22;20023;-74